createdAt,value
2022-08-23T00:02:29.390Z,75.58
2022-08-23T00:05:08.995Z,75.73
2022-08-23T00:07:40.971Z,75.37
2022-08-23T00:10:12.516Z,75.57
2022-08-23T00:12:42.681Z,75.56
2022-08-23T00:15:18.201Z,75.00
2022-08-23T00:17:48.916Z,75.33
2022-08-23T00:20:20.914Z,75.76
2022-08-23T00:22:49.429Z,76.41
2022-08-23T00:25:18.240Z,76.82
2022-08-23T00:27:47.457Z,76.68
2022-08-23T00:30:17.766Z,77.61
2022-08-23T00:32:48.246Z,78.00
2022-08-23T00:35:27.147Z,78.48
2022-08-23T00:38:31.671Z,78.24
2022-08-23T00:40:51.299Z,78.26
2022-08-23T00:43:44.373Z,78.80
2022-08-23T00:46:46.608Z,79.41
2022-08-23T00:49:19.018Z,79.90
2022-08-23T00:51:57.521Z,79.59
2022-08-23T00:54:29.961Z,79.56
2022-08-23T00:57:05.484Z,79.75
2022-08-23T00:59:34.633Z,79.46
2022-08-23T01:02:05.171Z,79.58
2022-08-23T01:04:42.817Z,79.88
2022-08-23T01:07:21.156Z,80.20
2022-08-23T01:09:53.148Z,80.67
2022-08-23T01:12:33.122Z,81.00
2022-08-23T01:15:08.573Z,81.67
2022-08-23T01:17:44.203Z,82.09
2022-08-23T01:20:19.614Z,82.09
2022-08-23T01:22:58.489Z,81.64
2022-08-23T01:25:32.488Z,81.55
2022-08-23T01:28:01.485Z,81.50
2022-08-23T01:30:34.420Z,82.02
2022-08-23T01:33:07.260Z,82.27
2022-08-23T01:35:41.768Z,82.37
2022-08-23T01:38:13.269Z,82.51
2022-08-23T01:40:44.914Z,83.22
2022-08-23T01:43:15.357Z,83.94
2022-08-23T01:45:44.737Z,84.02
2022-08-23T01:48:15.051Z,83.70
2022-08-23T01:50:44.003Z,83.40
2022-08-23T01:53:13.210Z,83.24
2022-08-23T01:55:45.511Z,83.88
2022-08-23T01:58:15.092Z,84.17
2022-08-23T02:00:45.594Z,84.93
2022-08-23T02:03:14.238Z,84.59
2022-08-23T02:05:44.190Z,84.39
2022-08-23T02:08:30.612Z,84.59
2022-08-23T02:11:01.433Z,83.92
2022-08-23T02:13:29.986Z,84.58
2022-08-23T02:15:59.970Z,85.61
2022-08-23T02:18:28.551Z,85.75
2022-08-23T02:20:57.955Z,85.80
2022-08-23T02:23:27.779Z,86.11
2022-08-23T02:25:57.256Z,85.45
2022-08-23T02:28:27.655Z,85.47
2022-08-23T02:30:56.143Z,85.85
2022-08-23T02:33:25.273Z,87.03
2022-08-23T02:35:53.851Z,87.78
2022-08-23T02:38:22.377Z,87.92
2022-08-23T02:40:52.766Z,87.83
2022-08-23T02:43:30.822Z,87.48
2022-08-23T02:45:59.947Z,87.41
2022-08-23T02:48:32.472Z,87.09
2022-08-23T02:51:07.953Z,87.62
2022-08-23T02:53:37.143Z,88.48
2022-08-23T02:56:21.607Z,88.59
2022-08-23T02:58:54.589Z,88.26
2022-08-23T03:01:29.960Z,88.14
2022-08-23T03:04:00.201Z,88.37
2022-08-23T03:06:30.107Z,87.95
2022-08-23T03:08:59.603Z,88.34
2022-08-23T03:11:30.878Z,88.55
2022-08-23T03:14:01.888Z,88.66
2022-08-23T03:16:31.040Z,88.57
2022-08-23T03:19:02.241Z,88.78
2022-08-23T03:21:31.299Z,88.63
2022-08-23T03:24:01.238Z,89.12
2022-08-23T03:26:30.095Z,89.61
2022-08-23T03:29:01.387Z,89.31
2022-08-23T03:31:31.000Z,89.42
2022-08-23T03:34:00.370Z,89.55
2022-08-23T03:36:29.225Z,89.61
2022-08-23T03:39:00.695Z,89.72
2022-08-23T03:41:29.349Z,89.67
2022-08-23T03:43:58.112Z,90.04
2022-08-23T03:46:33.901Z,90.04
2022-08-23T03:49:05.264Z,89.39
2022-08-23T03:51:35.622Z,89.95
2022-08-23T03:54:04.458Z,90.00
2022-08-23T03:56:38.094Z,89.88
2022-08-23T03:59:12.234Z,90.36
2022-08-23T04:01:42.566Z,90.35
2022-08-23T04:04:11.894Z,90.82
2022-08-23T04:06:41.157Z,90.66
2022-08-23T04:09:09.677Z,90.54
2022-08-23T04:11:39.762Z,91.06
2022-08-23T04:14:09.244Z,90.93
2022-08-23T04:16:39.082Z,91.17
2022-08-23T04:19:13.935Z,91.34
2022-08-23T04:21:49.283Z,91.47
2022-08-23T04:24:19.148Z,92.06
2022-08-23T04:26:49.631Z,91.05
2022-08-23T04:29:33.479Z,91.50
2022-08-23T04:32:05.541Z,91.80
2022-08-23T04:34:40.039Z,92.28
2022-08-23T04:37:09.633Z,92.70
2022-08-23T04:39:52.823Z,92.96
2022-08-23T04:42:23.444Z,94.05
2022-08-23T04:44:52.576Z,94.03
2022-08-23T04:47:21.539Z,94.96
2022-08-23T04:49:51.417Z,95.41
2022-08-23T04:52:20.146Z,95.08
2022-08-23T04:54:49.726Z,94.94
2022-08-23T04:57:18.260Z,96.01
2022-08-23T04:59:47.304Z,97.42
2022-08-23T05:02:15.853Z,98.14
2022-08-23T05:04:44.631Z,98.20
2022-08-23T05:07:15.652Z,98.63
2022-08-23T05:09:44.168Z,98.70
2022-08-23T05:12:12.819Z,98.50
2022-08-23T05:14:41.441Z,98.71
2022-08-23T05:17:16.446Z,99.13
2022-08-23T05:19:47.245Z,99.20
2022-08-23T05:22:17.286Z,98.93
2022-08-23T05:24:45.866Z,99.17
2022-08-23T05:27:15.699Z,98.92
2022-08-23T05:29:44.247Z,98.73
2022-08-23T05:32:13.265Z,98.32
2022-08-23T05:34:42.793Z,98.20
2022-08-23T05:37:11.909Z,97.96
2022-08-23T05:39:43.061Z,97.13
2022-08-23T05:42:17.053Z,97.11
2022-08-23T05:44:46.553Z,96.34
2022-08-23T05:47:17.543Z,95.68
2022-08-23T05:49:53.234Z,95.08
2022-08-23T05:52:22.036Z,95.07
2022-08-23T05:54:51.952Z,94.96
2022-08-23T05:57:20.561Z,94.98
2022-08-23T05:59:49.343Z,95.70
2022-08-23T06:02:17.910Z,96.57
2022-08-23T06:04:46.495Z,97.03
2022-08-23T06:07:16.757Z,96.98
2022-08-23T06:09:45.325Z,96.95
2022-08-23T06:12:16.171Z,96.68
2022-08-23T06:14:45.277Z,96.21
2022-08-23T06:17:14.336Z,95.95
2022-08-23T06:19:42.917Z,96.07
2022-08-23T06:22:11.674Z,95.80
2022-08-23T06:24:40.227Z,95.72
2022-08-23T06:27:08.762Z,95.73
2022-08-23T06:29:39.944Z,95.32
2022-08-23T06:32:08.725Z,94.94
2022-08-23T06:34:39.294Z,94.85
2022-08-23T06:37:13.745Z,94.74
2022-08-23T06:39:43.659Z,94.37
2022-08-23T06:42:37.920Z,93.86
2022-08-23T06:45:07.458Z,93.76
2022-08-23T06:47:35.974Z,93.24
2022-08-23T06:50:05.983Z,93.04
2022-08-23T06:52:34.546Z,92.94
2022-08-23T06:55:04.192Z,92.50
2022-08-23T06:57:33.471Z,91.99
2022-08-23T07:00:01.992Z,91.50
2022-08-23T07:02:32.513Z,91.64
2022-08-23T07:05:01.161Z,91.19
2022-08-23T07:07:41.147Z,90.83
2022-08-23T07:10:13.643Z,90.38
2022-08-23T07:12:43.278Z,90.44
2022-08-23T07:15:13.658Z,90.70
2022-08-23T07:17:43.988Z,90.12
2022-08-23T07:20:12.653Z,89.88
2022-08-23T07:22:42.295Z,89.47
2022-08-23T07:25:11.510Z,89.08
2022-08-23T07:27:40.238Z,88.74
2022-08-23T07:30:11.001Z,88.45
2022-08-23T07:32:41.230Z,88.04
2022-08-23T07:35:11.923Z,87.95
2022-08-23T07:37:41.170Z,87.34
2022-08-23T07:40:20.747Z,87.13
2022-08-23T07:42:49.704Z,86.59
2022-08-23T07:45:19.096Z,86.44
2022-08-23T07:47:51.782Z,85.84
2022-08-23T07:50:23.260Z,85.34
2022-08-23T07:52:51.909Z,85.29
2022-08-23T07:55:22.469Z,85.00
2022-08-23T07:57:51.744Z,84.43
2022-08-23T08:00:20.596Z,84.08
2022-08-23T08:02:49.763Z,83.79
2022-08-23T08:05:21.855Z,83.12
2022-08-23T08:07:51.153Z,82.42
2022-08-23T08:10:20.885Z,81.88
2022-08-23T08:12:50.054Z,81.48
2022-08-23T08:15:18.783Z,81.31
2022-08-23T08:17:49.235Z,80.54
2022-08-23T08:20:18.364Z,79.88
2022-08-23T08:22:56.421Z,79.35
2022-08-23T08:25:29.925Z,78.60
2022-08-23T08:28:00.786Z,78.24
2022-08-23T08:30:30.503Z,77.54
2022-08-23T08:32:59.277Z,76.74
2022-08-23T08:35:28.444Z,75.53
2022-08-23T08:37:58.521Z,75.19
2022-08-23T08:40:40.098Z,74.67
2022-08-23T08:43:31.729Z,74.09
2022-08-23T08:46:10.211Z,73.59
2022-08-23T08:48:47.270Z,72.50
2022-08-23T08:51:39.095Z,71.71
2022-08-23T08:54:16.973Z,72.04
2022-08-23T08:56:54.025Z,71.17
2022-08-23T08:59:28.904Z,70.21
2022-08-23T09:01:59.615Z,70.40
2022-08-23T09:04:28.362Z,69.24
2022-08-23T09:07:09.931Z,69.17
2022-08-23T09:10:18.123Z,69.06
2022-08-23T09:13:03.662Z,68.33
2022-08-23T09:15:42.783Z,68.16
2022-08-23T09:18:15.787Z,67.65
2022-08-23T09:20:49.069Z,66.85
2022-08-23T09:23:24.491Z,65.76
2022-08-23T09:26:03.538Z,65.55
2022-08-23T09:28:37.683Z,65.30
2022-08-23T09:31:08.331Z,64.59
2022-08-23T09:33:45.970Z,63.44
2022-08-23T09:36:23.634Z,61.85
2022-08-23T09:38:55.048Z,61.57
2022-08-23T09:41:29.424Z,59.94
2022-08-23T09:44:02.017Z,60.31
2022-08-23T09:46:39.056Z,59.71
2022-08-23T09:49:30.039Z,58.65
2022-08-23T09:52:03.427Z,58.34
2022-08-23T09:54:36.314Z,56.77
2022-08-23T09:57:10.821Z,55.68
2022-08-23T09:59:44.797Z,55.42
2022-08-23T10:02:27.145Z,55.25
2022-08-23T10:05:06.643Z,53.94
2022-08-23T10:07:42.615Z,53.80
2022-08-23T10:10:32.321Z,51.64
2022-08-23T10:13:04.678Z,51.69
2022-08-23T10:15:55.176Z,51.34
2022-08-23T10:18:47.699Z,51.17
2022-08-23T10:21:24.528Z,50.24
2022-08-23T10:24:15.950Z,49.74
2022-08-23T10:27:03.791Z,50.34
2022-08-23T10:29:41.196Z,50.39
2022-08-23T10:32:27.406Z,50.46
2022-08-23T10:35:19.531Z,50.49
2022-08-23T10:38:05.041Z,50.30
2022-08-23T10:40:44.004Z,50.68
2022-08-23T10:43:26.766Z,50.74
2022-08-23T10:46:01.847Z,50.52
2022-08-23T10:48:37.556Z,49.64
2022-08-23T10:51:31.262Z,49.17
2022-08-23T10:54:07.613Z,49.05
2022-08-23T10:56:42.957Z,48.41
2022-08-23T10:59:24.505Z,48.76
2022-08-23T11:02:20.246Z,48.12
2022-08-23T11:05:02.724Z,48.07
2022-08-23T11:07:35.396Z,48.16
2022-08-23T11:10:17.262Z,48.08
2022-08-23T11:12:59.312Z,47.65
2022-08-23T11:15:44.505Z,47.85
2022-08-23T11:18:43.001Z,47.19
2022-08-23T11:21:49.025Z,46.00
2022-08-23T11:24:55.217Z,45.74
2022-08-23T11:27:37.609Z,44.99
2022-08-23T11:30:46.685Z,44.68
2022-08-23T11:33:26.696Z,45.05
2022-08-23T11:36:18.059Z,45.02
2022-08-23T11:39:12.948Z,45.07
2022-08-23T11:42:07.115Z,44.47
2022-08-23T11:44:48.427Z,44.86
2022-08-23T11:47:27.334Z,44.95
2022-08-23T11:50:28.878Z,44.02
2022-08-23T11:53:26.604Z,43.94
2022-08-23T11:56:23.869Z,44.10
2022-08-23T11:59:24.963Z,43.90
2022-08-23T12:01:54.570Z,43.96
2022-08-23T12:04:43.405Z,43.39
2022-08-23T12:07:13.940Z,43.21
2022-08-23T12:09:57.631Z,42.75
2022-08-23T12:12:36.167Z,42.56
2022-08-23T12:15:12.100Z,42.89
2022-08-23T12:18:13.625Z,42.35
2022-08-23T12:20:45.796Z,42.94
2022-08-23T12:23:22.997Z,42.91
2022-08-23T12:26:22.788Z,42.09
2022-08-23T12:29:03.890Z,42.30
2022-08-23T12:31:45.408Z,41.77
2022-08-23T12:34:26.547Z,41.44
2022-08-23T12:37:11.790Z,41.50
2022-08-23T12:39:55.126Z,41.65
2022-08-23T12:42:31.078Z,41.37
2022-08-23T12:45:14.505Z,41.16
2022-08-23T12:47:45.453Z,40.98
2022-08-23T12:50:32.593Z,41.06
2022-08-23T12:53:07.277Z,40.86
2022-08-23T12:55:41.647Z,40.86
2022-08-23T12:58:12.412Z,40.64
2022-08-23T13:00:51.543Z,40.50
2022-08-23T13:03:27.958Z,39.60
2022-08-23T13:06:02.023Z,40.38
2022-08-23T13:08:39.745Z,39.98
2022-08-23T13:11:13.016Z,40.12
2022-08-23T13:13:45.176Z,40.17
2022-08-23T13:16:43.126Z,40.18
2022-08-23T13:19:22.383Z,39.49
2022-08-23T13:22:14.984Z,39.30
2022-08-23T13:24:47.655Z,39.74
2022-08-23T13:27:24.276Z,39.39
2022-08-23T13:29:57.438Z,39.96
2022-08-23T13:32:46.915Z,38.91
2022-08-23T13:35:39.078Z,39.21
2022-08-23T13:38:21.711Z,39.08
2022-08-23T13:41:02.090Z,39.34
2022-08-23T13:43:40.852Z,38.87
2022-08-23T13:46:18.121Z,38.87
2022-08-23T13:48:58.760Z,38.96
2022-08-23T13:51:31.947Z,37.96
2022-08-23T13:54:05.056Z,38.38
2022-08-23T13:56:41.712Z,38.95
2022-08-23T13:59:31.953Z,38.52
2022-08-23T14:02:02.608Z,38.61
2022-08-23T14:04:31.398Z,38.64
2022-08-23T14:07:00.080Z,38.63
2022-08-23T14:09:28.716Z,39.04
2022-08-23T14:12:03.891Z,38.78
2022-08-23T14:14:37.217Z,38.91
2022-08-23T14:17:12.787Z,38.64
2022-08-23T14:22:31.935Z,38.16
2022-08-23T14:25:01.190Z,38.00
2022-08-23T14:27:30.000Z,38.05
2022-08-23T14:30:00.076Z,38.18
2022-08-23T14:32:28.744Z,37.80
2022-08-23T14:34:57.396Z,37.68
2022-08-23T14:40:15.408Z,38.04
2022-08-23T14:42:45.672Z,37.39
2022-08-23T14:45:17.944Z,37.24
2022-08-23T14:47:46.947Z,37.72
2022-08-23T14:50:16.268Z,37.20
2022-08-23T14:52:48.253Z,37.52
2022-08-23T14:55:19.429Z,37.51
2022-08-23T14:57:51.681Z,37.33
2022-08-23T15:00:21.941Z,36.92
2022-08-23T15:02:51.278Z,36.89
2022-08-23T15:05:20.029Z,37.16
2022-08-23T15:07:48.597Z,37.01
2022-08-23T15:13:22.097Z,37.24
2022-08-23T15:15:56.235Z,36.23
2022-08-23T15:18:24.851Z,36.73
2022-08-23T15:20:53.417Z,35.85
2022-08-23T15:23:22.272Z,36.32
2022-08-23T15:25:52.217Z,35.92
2022-08-23T15:28:24.872Z,35.23
2022-08-23T15:30:55.403Z,34.95
2022-08-23T15:33:30.720Z,36.04
2022-08-23T15:36:01.847Z,35.23
2022-08-23T15:38:33.178Z,34.68
2022-08-23T15:41:02.478Z,35.42
2022-08-23T15:43:35.390Z,34.73
2022-08-23T15:46:14.245Z,34.87
2022-08-23T15:48:48.715Z,34.13
2022-08-23T15:51:19.599Z,34.02
2022-08-23T15:53:48.664Z,34.06
2022-08-23T15:56:23.666Z,34.14
2022-08-23T15:58:56.077Z,34.80
2022-08-23T16:01:28.874Z,34.55
2022-08-23T16:03:58.643Z,35.15
2022-08-23T16:06:29.310Z,35.07
2022-08-23T16:08:59.895Z,34.87
2022-08-23T16:11:28.515Z,34.39
2022-08-23T16:13:57.562Z,34.85
2022-08-23T16:16:32.180Z,35.16
2022-08-23T16:19:01.775Z,35.36
2022-08-23T16:21:32.257Z,35.74
2022-08-23T16:24:01.472Z,35.95
2022-08-23T16:26:35.670Z,35.29
2022-08-23T16:29:07.529Z,35.71
2022-08-23T16:31:39.931Z,35.65
2022-08-23T16:34:13.612Z,35.72
2022-08-23T16:36:45.572Z,36.46
2022-08-23T16:39:16.925Z,36.51
2022-08-23T16:41:45.634Z,36.03
2022-08-23T16:44:14.365Z,36.39
2022-08-23T16:46:44.935Z,36.66
2022-08-23T16:49:16.375Z,36.71
2022-08-23T16:51:45.720Z,36.53
2022-08-23T16:54:14.593Z,36.72
2022-08-23T16:56:43.897Z,36.77
2022-08-23T16:59:15.134Z,36.93
2022-08-23T17:01:52.227Z,37.30
2022-08-23T17:04:25.415Z,37.40
2022-08-23T17:07:00.144Z,37.82
2022-08-23T17:09:30.279Z,37.78
2022-08-23T17:12:00.140Z,37.80
2022-08-23T17:14:28.980Z,38.11
2022-08-23T17:17:00.942Z,38.17
2022-08-23T17:19:29.629Z,38.56
2022-08-23T17:21:58.688Z,38.66
2022-08-23T17:24:27.245Z,39.02
2022-08-23T17:26:56.842Z,39.26
2022-08-23T17:29:25.757Z,39.59
2022-08-23T17:31:54.428Z,39.61
2022-08-23T17:34:24.441Z,40.63
2022-08-23T17:36:56.448Z,41.17
2022-08-23T17:39:29.686Z,40.86
2022-08-23T17:41:59.795Z,40.96
2022-08-23T17:44:28.461Z,41.62
2022-08-23T17:46:57.317Z,41.78
2022-08-23T17:49:27.361Z,42.25
2022-08-23T17:51:56.070Z,42.60
2022-08-23T17:54:24.647Z,42.81
2022-08-23T17:56:53.660Z,42.82
2022-08-23T17:59:23.182Z,43.27
2022-08-23T18:01:52.099Z,43.49
2022-08-23T18:04:21.375Z,43.95
2022-08-23T18:06:51.494Z,44.17
2022-08-23T18:09:20.802Z,44.13
2022-08-23T18:11:49.318Z,44.20
2022-08-23T18:14:17.930Z,44.42
2022-08-23T18:16:47.047Z,44.89
2022-08-23T18:19:15.731Z,45.96
2022-08-23T18:21:45.488Z,45.04
2022-08-23T18:24:15.995Z,46.77
2022-08-23T18:27:02.595Z,46.56
2022-08-23T18:29:34.311Z,47.63
2022-08-23T18:32:04.346Z,48.33
2022-08-23T18:34:33.642Z,48.67
2022-08-23T18:37:02.790Z,48.19
2022-08-23T18:39:32.896Z,48.60
2022-08-23T18:42:04.314Z,49.40
2022-08-23T18:44:33.702Z,48.97
2022-08-23T18:47:04.853Z,48.63
2022-08-23T18:49:34.503Z,48.77
2022-08-23T18:52:07.000Z,48.90
2022-08-23T18:54:38.552Z,50.03
2022-08-23T18:57:07.556Z,50.50
2022-08-23T18:59:44.729Z,50.40
2022-08-23T19:02:13.525Z,50.72
2022-08-23T19:04:42.173Z,50.54
2022-08-23T19:07:11.865Z,51.34
2022-08-23T19:09:41.852Z,51.43
2022-08-23T19:12:10.849Z,51.76
2022-08-23T19:14:39.453Z,52.17
2022-08-23T19:17:09.398Z,52.32
2022-08-23T19:19:38.276Z,53.62
2022-08-23T19:22:07.080Z,53.68
2022-08-23T19:24:35.651Z,53.46
2022-08-23T19:27:06.396Z,53.94
2022-08-23T19:29:35.238Z,53.97
2022-08-23T19:32:04.811Z,54.60
2022-08-23T19:34:33.547Z,55.20
2022-08-23T19:37:02.177Z,54.99
2022-08-23T19:39:31.455Z,55.27
2022-08-23T19:42:00.103Z,55.48
2022-08-23T19:44:32.733Z,55.42
2022-08-23T19:47:01.565Z,55.55
2022-08-23T19:49:31.182Z,55.88
2022-08-23T19:52:00.295Z,56.13
2022-08-23T19:54:29.070Z,56.32
2022-08-23T19:57:03.025Z,56.07
2022-08-23T19:59:36.607Z,56.49
2022-08-23T20:02:05.578Z,57.93
2022-08-23T20:04:35.370Z,57.69
2022-08-23T20:07:05.686Z,58.04
2022-08-23T20:09:36.299Z,58.58
2022-08-23T20:12:05.815Z,58.44
2022-08-23T20:14:35.765Z,58.42
2022-08-23T20:17:07.509Z,58.47
2022-08-23T20:19:36.349Z,59.67
2022-08-23T20:22:23.710Z,60.26
2022-08-23T20:24:53.065Z,60.36
2022-08-23T20:27:24.169Z,60.34
2022-08-23T20:30:01.623Z,60.64
2022-08-23T20:32:31.440Z,60.44
2022-08-23T20:35:01.245Z,61.48
2022-08-23T20:37:30.938Z,61.76
2022-08-23T20:39:59.692Z,61.90
2022-08-23T20:42:28.477Z,62.88
2022-08-23T20:44:57.314Z,62.79
2022-08-23T20:47:27.221Z,63.08
2022-08-23T20:49:55.866Z,63.37
2022-08-23T20:52:24.758Z,63.44
2022-08-23T20:54:53.548Z,64.64
2022-08-23T20:57:22.799Z,64.83
2022-08-23T20:59:52.122Z,64.75
2022-08-23T21:02:20.779Z,65.19
2022-08-23T21:04:52.104Z,65.22
2022-08-23T21:07:21.469Z,65.19
2022-08-23T21:09:51.742Z,66.27
2022-08-23T21:12:20.339Z,66.48
2022-08-23T21:14:49.613Z,66.31
2022-08-23T21:17:18.094Z,66.05
2022-08-23T21:19:47.163Z,66.44
2022-08-23T21:22:18.717Z,66.60
2022-08-23T21:24:47.961Z,66.61
2022-08-23T21:27:20.297Z,66.90
2022-08-23T21:29:48.877Z,67.53
2022-08-23T21:32:17.422Z,68.43
2022-08-23T21:34:45.931Z,69.11
2022-08-23T21:37:14.527Z,69.13
2022-08-23T21:39:44.458Z,69.78
2022-08-23T21:42:15.656Z,69.83
2022-08-23T21:44:45.077Z,70.88
2022-08-23T21:47:15.406Z,71.69
2022-08-23T21:49:44.469Z,72.41
2022-08-23T21:52:12.962Z,72.01
2022-08-23T21:54:43.877Z,71.59
2022-08-23T21:57:13.225Z,71.63
2022-08-23T21:59:41.894Z,71.50
2022-08-23T22:02:10.910Z,71.95
2022-08-23T22:04:39.823Z,72.47
2022-08-23T22:07:08.926Z,73.42
2022-08-23T22:09:37.449Z,74.25
2022-08-23T22:12:09.193Z,75.20
2022-08-23T22:14:37.844Z,75.34
2022-08-23T22:17:06.962Z,74.72
2022-08-23T22:19:35.531Z,75.40
2022-08-23T22:22:05.449Z,75.45
2022-08-23T22:24:33.939Z,75.23
2022-08-23T22:27:03.014Z,75.81
2022-08-23T22:29:33.528Z,76.18
2022-08-23T22:32:02.806Z,76.61
2022-08-23T22:34:31.412Z,77.36
2022-08-23T22:36:59.913Z,78.33
2022-08-23T22:39:29.009Z,78.62
2022-08-23T22:41:57.600Z,79.10
2022-08-23T22:44:28.758Z,78.99
2022-08-23T22:46:58.801Z,79.60
2022-08-23T22:49:27.976Z,79.59
2022-08-23T22:51:59.522Z,79.67
2022-08-23T22:54:27.992Z,80.07
2022-08-23T22:57:24.889Z,80.53
2022-08-23T22:59:53.845Z,80.56
2022-08-23T23:02:25.109Z,80.13
2022-08-23T23:04:57.284Z,79.73
2022-08-23T23:07:40.149Z,79.93
2022-08-23T23:10:10.926Z,79.62
2022-08-23T23:12:40.158Z,80.40
2022-08-23T23:15:10.571Z,81.87
2022-08-23T23:17:41.603Z,81.59
2022-08-23T23:20:28.827Z,81.77
2022-08-23T23:22:57.697Z,82.22
2022-08-23T23:25:26.788Z,82.38
2022-08-23T23:27:55.260Z,82.25
2022-08-23T23:30:28.445Z,82.76
2022-08-23T23:32:59.250Z,82.83
2022-08-23T23:35:29.113Z,83.02
2022-08-23T23:37:59.158Z,82.87
2022-08-23T23:40:28.393Z,83.58
2022-08-23T23:42:57.771Z,83.55
2022-08-23T23:45:26.244Z,84.75
2022-08-23T23:47:55.721Z,84.93
2022-08-23T23:50:26.988Z,85.25
2022-08-23T23:52:55.945Z,85.96
2022-08-23T23:55:25.018Z,86.20
2022-08-23T23:57:54.102Z,86.45
